createdAt,value
2022-11-29T17:07:01.629Z,14.07
2022-11-29T17:09:34.700Z,11.27
2022-11-29T17:12:06.520Z,8.98
2022-11-29T17:14:41.535Z,8.90
2022-11-29T17:17:17.198Z,9.75
2022-11-29T17:19:48.415Z,8.93
2022-11-29T17:22:26.930Z,8.63
2022-11-29T17:24:57.031Z,8.95
2022-11-29T17:27:27.105Z,7.60
2022-11-29T17:29:54.323Z,7.97
2022-11-29T17:32:27.013Z,7.82
2022-11-29T17:34:56.797Z,9.40
2022-11-29T17:37:26.581Z,9.90
2022-11-29T17:39:54.515Z,11.40
2022-11-29T17:42:22.801Z,9.13
2022-11-29T17:44:52.365Z,8.50
2022-11-29T17:47:21.897Z,11.48
2022-11-29T17:49:49.354Z,12.63
2022-11-29T17:52:16.605Z,10.55
2022-11-29T17:54:44.313Z,9.02
2022-11-29T17:57:11.532Z,8.70
2022-11-29T17:59:38.710Z,7.25
2022-11-29T18:02:06.009Z,7.50
2022-11-29T18:04:33.242Z,10.48
2022-11-29T18:07:01.707Z,6.20
2022-11-29T18:09:28.952Z,9.77
2022-11-29T18:11:56.223Z,7.53
2022-11-29T18:14:28.222Z,7.88
2022-11-29T18:16:55.753Z,8.05
2022-11-29T18:19:23.899Z,12.02
2022-11-29T18:21:52.111Z,19.13
2022-11-29T18:24:20.000Z,10.35
2022-11-29T18:26:47.334Z,7.88
2022-11-29T18:29:14.762Z,7.95
2022-11-29T18:31:45.174Z,9.48
2022-11-29T18:34:14.930Z,7.55
2022-11-29T18:36:46.439Z,10.30
2022-11-29T18:39:20.075Z,9.13
2022-11-29T18:41:50.196Z,10.57
2022-11-29T18:44:21.875Z,8.68
2022-11-29T18:46:49.328Z,10.02
2022-11-29T18:49:18.205Z,10.13
2022-11-29T18:51:47.646Z,9.57
2022-11-29T18:54:18.035Z,9.60
2022-11-29T18:56:46.975Z,11.82
2022-11-29T18:59:17.889Z,11.13
2022-11-29T19:01:48.218Z,10.52
2022-11-29T19:04:21.318Z,8.55
2022-11-29T19:06:49.051Z,6.78
2022-11-29T19:09:23.499Z,8.68
2022-11-29T19:11:51.056Z,8.30
2022-11-29T19:16:49.564Z,7.05
2022-11-29T19:19:18.799Z,7.65
2022-11-29T19:21:46.098Z,14.55
2022-11-29T19:24:18.272Z,11.55
2022-11-29T19:26:48.135Z,10.77
2022-11-29T19:29:16.213Z,9.68
2022-11-29T19:31:43.780Z,11.45
2022-11-29T19:36:44.780Z,8.27
2022-11-29T19:39:16.541Z,10.18
2022-11-29T19:41:47.164Z,12.32
2022-11-29T19:44:14.806Z,10.90
2022-11-29T19:49:13.306Z,11.25
2022-11-29T19:51:41.460Z,10.10
2022-11-29T19:54:10.426Z,13.30
2022-11-29T19:56:39.485Z,9.60
2022-11-29T19:59:09.050Z,12.88
2022-11-29T20:01:42.559Z,10.43
2022-11-29T20:04:13.008Z,8.88
2022-11-29T20:06:41.817Z,10.55
2022-11-29T20:09:10.690Z,8.57
2022-11-29T20:11:38.622Z,12.65
2022-11-29T20:14:07.907Z,11.93
2022-11-29T20:16:38.162Z,11.68
2022-11-29T20:19:14.727Z,8.35
2022-11-29T20:21:46.361Z,10.40
2022-11-29T20:24:14.857Z,9.35
2022-11-29T20:26:46.741Z,8.55
2022-11-29T20:29:15.445Z,10.27
2022-11-29T20:31:50.083Z,9.63
2022-11-29T20:34:18.782Z,9.48
2022-11-29T20:37:27.199Z,11.63
2022-11-29T20:40:28.733Z,8.32
2022-11-29T20:43:22.402Z,7.43
2022-11-29T20:45:50.940Z,7.05
2022-11-29T20:48:22.619Z,7.97
2022-11-29T20:51:00.523Z,6.88
2022-11-29T20:53:44.355Z,5.75
2022-11-29T20:56:12.346Z,5.80
2022-11-29T20:58:40.133Z,5.13
2022-11-29T21:01:08.226Z,5.95
2022-11-29T21:03:36.125Z,6.30
2022-11-29T21:06:06.622Z,5.18
2022-11-29T21:08:35.658Z,6.25
2022-11-29T21:11:12.818Z,7.05
2022-11-29T21:13:40.787Z,7.13
2022-11-29T21:16:11.461Z,5.97
2022-11-29T21:18:39.364Z,6.88
2022-11-29T21:21:22.714Z,5.93
2022-11-29T21:24:28.170Z,5.35
2022-11-29T21:26:55.870Z,6.38
2022-11-29T21:31:54.215Z,5.28
2022-11-29T21:34:22.103Z,6.50
2022-11-29T21:36:58.123Z,7.45
2022-11-29T21:39:34.202Z,5.75
2022-11-29T21:42:02.188Z,5.53
2022-11-29T21:44:29.552Z,5.68
2022-11-29T21:46:56.731Z,5.78
2022-11-29T21:49:24.032Z,8.00
2022-11-29T21:51:51.209Z,7.22
2022-11-29T21:54:18.438Z,6.38
2022-11-29T21:56:45.768Z,3.85
2022-11-29T21:59:12.939Z,5.43
2022-11-29T22:01:40.223Z,7.03
2022-11-29T22:04:07.635Z,4.90
2022-11-29T22:06:36.813Z,5.72
2022-11-29T22:09:07.739Z,6.15
2022-11-29T22:11:35.550Z,5.93
2022-11-29T22:14:14.957Z,5.88
2022-11-29T22:16:49.744Z,6.13
2022-11-29T22:19:21.874Z,5.88
2022-11-29T22:21:52.811Z,6.82
2022-11-29T22:24:23.910Z,4.85
2022-11-29T22:26:53.134Z,4.97
2022-11-29T22:29:21.920Z,6.38
2022-11-29T22:31:53.228Z,5.45
2022-11-29T22:34:22.190Z,6.30
2022-11-29T22:36:49.653Z,5.35
2022-11-29T22:39:17.080Z,6.20
2022-11-29T22:41:46.117Z,6.32
2022-11-29T22:44:16.478Z,6.13
2022-11-29T22:46:43.836Z,4.93
2022-11-29T22:49:10.975Z,6.28
2022-11-29T22:51:38.881Z,5.28
2022-11-29T22:54:09.523Z,5.28
2022-11-29T22:56:40.962Z,6.60
2022-11-29T22:59:08.749Z,5.22
2022-11-29T23:01:39.280Z,6.20
2022-11-29T23:04:08.589Z,6.03
2022-11-29T23:06:39.342Z,7.22
2022-11-29T23:09:22.409Z,5.65
2022-11-29T23:11:56.338Z,6.28
2022-11-29T23:14:24.755Z,5.47
2022-11-29T23:16:53.133Z,4.82
2022-11-29T23:19:20.927Z,5.18
2022-11-29T23:21:48.240Z,4.55
2022-11-29T23:24:15.995Z,3.83
2022-11-29T23:26:47.749Z,4.60
2022-11-29T23:29:19.937Z,5.95
2022-11-29T23:31:47.600Z,5.78
2022-11-29T23:34:15.656Z,3.45
2022-11-29T23:36:44.809Z,3.83
2022-11-29T23:39:15.580Z,5.15
2022-11-29T23:41:42.823Z,4.13
2022-11-29T23:44:11.219Z,4.18
2022-11-29T23:46:38.466Z,3.90
2022-11-29T23:49:05.701Z,4.80
2022-11-29T23:51:32.950Z,4.75
2022-11-29T23:54:00.045Z,5.43
2022-11-29T23:56:27.639Z,3.58
2022-11-29T23:58:54.792Z,5.97
